createdAt,value
2023-03-25T00:06:06.423Z,99187.01
2023-03-25T00:48:41.748Z,99159.08
2023-03-25T00:53:17.140Z,99158.30
2023-03-25T01:11:58.904Z,99160.27
2023-03-25T01:21:11.863Z,99152.69
2023-03-25T01:26:24.823Z,99153.89
2023-03-25T01:53:19.174Z,99122.40
2023-03-25T01:57:24.358Z,99127.81
2023-03-25T02:01:28.204Z,99124.20
2023-03-25T02:05:47.963Z,99125.38
2023-03-25T02:09:51.308Z,99119.80
2023-03-25T02:13:55.470Z,99117.81
2023-03-25T02:18:13.691Z,99115.39
2023-03-25T02:22:38.158Z,99111.70
2023-03-25T02:27:05.078Z,99107.27
2023-03-25T02:31:25.656Z,99094.86
2023-03-25T02:35:28.873Z,99107.09
2023-03-25T02:39:36.139Z,99105.99
2023-03-25T02:44:05.576Z,99101.23
2023-03-25T02:48:34.288Z,99103.88
2023-03-25T02:52:48.374Z,99103.24
2023-03-25T02:56:57.857Z,99108.32
2023-03-25T03:01:01.561Z,99116.55
2023-03-25T03:05:23.307Z,99119.84
2023-03-25T03:09:46.675Z,99122.88
2023-03-25T03:14:08.228Z,99120.82
2023-03-25T03:18:18.482Z,99119.27
2023-03-25T03:22:52.748Z,99118.70
2023-03-25T03:27:23.919Z,99116.91
2023-03-25T03:31:49.750Z,99116.02
2023-03-25T03:36:04.673Z,99113.61
2023-03-25T03:40:16.709Z,99113.52
2023-03-25T03:44:26.022Z,99112.97
2023-03-25T03:48:52.168Z,99111.14
2023-03-25T03:53:09.905Z,99110.23
2023-03-25T03:57:41.886Z,99105.89
2023-03-25T04:01:48.198Z,99106.84
2023-03-25T04:05:59.047Z,99113.05
2023-03-25T04:10:06.466Z,99110.65
2023-03-25T04:14:11.330Z,99107.10
2023-03-25T04:18:14.772Z,99104.58
2023-03-25T04:22:21.985Z,99101.85
2023-03-25T04:26:25.521Z,99101.38
2023-03-25T04:30:30.007Z,99101.24
2023-03-25T04:34:34.054Z,99108.60
2023-03-25T04:38:37.997Z,99108.31
2023-03-25T04:42:42.939Z,99108.96
2023-03-25T04:51:59.807Z,99112.25
2023-03-25T04:56:30.780Z,99110.77
2023-03-25T05:01:27.016Z,99111.09
2023-03-25T05:05:50.185Z,99110.92
2023-03-25T05:10:38.619Z,99105.77
2023-03-25T05:33:43.497Z,99117.42
2023-03-25T05:56:31.630Z,99103.40
2023-03-25T06:10:56.134Z,99105.16
2023-03-25T06:20:49.924Z,99114.56
2023-03-25T06:44:26.482Z,99126.59
2023-03-25T06:48:45.579Z,99124.15
2023-03-25T06:52:49.083Z,99119.70
2023-03-25T06:56:52.488Z,99117.48
2023-03-25T07:00:56.187Z,99113.70
2023-03-25T07:05:00.876Z,99111.41
2023-03-25T07:09:04.556Z,99116.24
2023-03-25T07:13:10.069Z,99108.09
2023-03-25T07:17:14.055Z,99104.02
2023-03-25T07:21:18.675Z,99101.84
2023-03-25T07:25:23.159Z,99106.41
2023-03-25T07:29:26.469Z,99105.52
2023-03-25T07:33:29.764Z,99104.40
2023-03-25T07:37:33.031Z,99102.66
2023-03-25T07:41:36.351Z,99106.41
2023-03-25T07:45:44.334Z,99107.48
2023-03-25T07:49:50.408Z,99108.82
2023-03-25T07:53:53.707Z,99109.58
2023-03-25T07:57:58.756Z,99112.65
2023-03-25T08:02:02.947Z,99121.10
2023-03-25T08:06:07.107Z,99123.37
2023-03-25T08:10:10.790Z,99125.17
2023-03-25T08:14:14.348Z,99122.97
2023-03-25T08:18:17.906Z,99105.48
2023-03-25T08:22:21.300Z,99103.00
2023-03-25T08:26:27.173Z,99117.85
2023-03-25T08:30:30.537Z,99114.98
2023-03-25T08:34:39.830Z,99113.38
2023-03-25T08:38:43.419Z,99113.86
2023-03-25T08:42:46.951Z,99114.77
2023-03-25T08:46:50.266Z,99115.17
2023-03-25T08:50:53.692Z,99117.45
2023-03-25T08:54:57.559Z,99109.85
2023-03-25T08:59:01.559Z,99108.67
2023-03-25T09:03:05.557Z,99109.03
2023-03-25T09:07:12.566Z,99112.23
2023-03-25T09:11:24.288Z,99120.77
2023-03-25T09:15:34.643Z,99118.23
2023-03-25T09:19:38.267Z,99120.30
2023-03-25T09:23:42.218Z,99124.56
2023-03-25T09:27:45.718Z,99125.45
2023-03-25T09:31:49.305Z,99141.16
2023-03-25T09:35:53.302Z,99143.90
2023-03-25T09:39:57.621Z,99144.58
2023-03-25T09:44:15.248Z,99148.02
2023-03-25T09:48:33.709Z,99148.16
2023-03-25T09:52:50.760Z,99152.78
2023-03-25T09:56:59.831Z,99153.20
2023-03-25T10:01:27.166Z,99145.15
2023-03-25T10:05:56.433Z,99132.23
2023-03-25T10:10:24.282Z,99112.09
2023-03-25T10:14:52.009Z,99113.33
2023-03-25T10:19:16.245Z,99104.84
2023-03-25T10:23:29.177Z,99099.84
2023-03-25T10:27:42.830Z,99103.11
2023-03-25T10:31:57.866Z,99102.40
2023-03-25T10:36:03.116Z,99113.72
2023-03-25T10:40:34.940Z,99098.84
2023-03-25T10:44:38.245Z,99097.27
2023-03-25T10:48:41.826Z,99099.91
2023-03-25T10:52:48.235Z,99096.94
2023-03-25T10:56:59.119Z,99095.70
2023-03-25T11:01:10.879Z,99087.27
2023-03-25T11:05:19.202Z,99080.27
2023-03-25T11:09:24.336Z,99080.16
2023-03-25T11:13:29.808Z,99081.79
2023-03-25T11:17:33.817Z,99071.13
2023-03-25T11:21:37.355Z,99066.11
2023-03-25T11:25:42.264Z,99081.52
2023-03-25T11:29:55.854Z,99080.85
2023-03-25T11:34:05.266Z,99091.15
2023-03-25T11:38:20.174Z,99091.44
2023-03-25T11:42:33.548Z,99098.88
2023-03-25T11:46:43.638Z,99117.27
2023-03-25T11:50:53.083Z,99135.58
2023-03-25T11:54:57.443Z,99146.94
2023-03-25T11:59:02.508Z,99146.36
2023-03-25T12:03:12.281Z,99175.61
2023-03-25T12:07:19.451Z,99168.94
2023-03-25T12:11:42.902Z,99172.21
2023-03-25T12:16:21.203Z,99168.73
2023-03-25T12:20:41.624Z,99177.48
2023-03-25T12:25:04.088Z,99173.20
2023-03-25T12:29:56.005Z,99167.73
2023-03-25T12:34:17.444Z,99154.83
2023-03-25T12:38:32.980Z,99151.80
2023-03-25T12:42:57.308Z,99149.07
2023-03-25T12:47:21.053Z,99149.81
2023-03-25T12:51:39.564Z,99138.33
2023-03-25T12:55:52.992Z,99125.91
2023-03-25T13:00:20.715Z,99129.56
2023-03-25T13:04:36.722Z,99122.90
2023-03-25T13:08:56.715Z,99124.70
2023-03-25T13:13:03.730Z,99122.98
2023-03-25T13:17:15.799Z,99115.02
2023-03-25T13:21:22.896Z,99107.88
2023-03-25T13:25:49.760Z,99098.95
2023-03-25T13:29:54.998Z,99098.16
2023-03-25T13:34:35.598Z,99095.39
2023-03-25T13:38:47.591Z,99091.61
2023-03-25T13:43:06.696Z,99079.03
2023-03-25T13:47:19.736Z,99066.91
2023-03-25T13:51:24.936Z,99064.42
2023-03-25T13:55:43.981Z,99064.27
2023-03-25T14:00:10.163Z,99062.46
2023-03-25T14:04:28.955Z,99077.29
2023-03-25T14:08:58.314Z,99099.72
2023-03-25T14:13:10.162Z,99123.70
2023-03-25T14:17:17.013Z,99125.39
2023-03-25T14:21:48.080Z,99123.98
2023-03-25T14:26:00.533Z,99109.94
2023-03-25T14:30:20.696Z,99095.66
2023-03-25T14:34:26.186Z,99110.34
2023-03-25T14:38:56.744Z,99122.98
2023-03-25T14:43:03.449Z,99113.23
2023-03-25T14:47:17.317Z,99111.81
2023-03-25T14:51:26.886Z,99106.94
2023-03-25T15:00:09.811Z,99100.74
2023-03-25T15:14:01.406Z,99074.51
2023-03-25T15:18:05.266Z,99072.55
2023-03-25T15:22:21.372Z,99070.52
2023-03-25T15:26:30.621Z,99065.09
2023-03-25T15:30:49.449Z,99063.77
2023-03-25T15:34:54.393Z,99056.31
2023-03-25T15:39:13.102Z,99055.01
2023-03-25T15:43:59.576Z,99051.02
2023-03-25T15:57:38.624Z,99061.20
2023-03-25T16:01:46.530Z,99063.35
2023-03-25T16:06:01.850Z,99058.85
2023-03-25T16:32:47.773Z,99071.39
2023-03-25T16:51:20.742Z,99061.34
2023-03-25T17:06:40.021Z,99067.27
2023-03-25T17:21:02.425Z,99067.03
2023-03-25T17:34:45.510Z,99072.63
2023-03-25T17:53:25.668Z,99122.80
2023-03-25T18:08:02.806Z,99148.57
2023-03-25T18:49:53.022Z,99179.49
2023-03-25T18:54:20.037Z,99184.36
2023-03-25T18:59:06.866Z,99180.91
2023-03-25T19:03:14.456Z,99178.45
2023-03-25T19:11:52.264Z,99175.96
2023-03-25T19:16:19.655Z,99172.35
2023-03-25T19:20:44.966Z,99178.84
2023-03-25T19:25:03.101Z,99185.23
2023-03-25T19:29:10.651Z,99183.34
2023-03-25T19:37:58.260Z,99180.40
2023-03-25T19:42:15.412Z,99174.83
2023-03-25T19:55:25.562Z,99173.80
2023-03-25T20:05:41.212Z,99168.22
2023-03-25T20:10:29.296Z,99165.27
2023-03-25T20:15:20.902Z,99163.79
2023-03-25T20:20:15.851Z,99165.92
2023-03-25T20:25:13.400Z,99160.92
2023-03-25T20:38:57.770Z,99153.34
2023-03-25T20:43:54.602Z,99143.33
2023-03-25T20:53:19.476Z,99140.66
2023-03-25T20:57:40.700Z,99141.25
2023-03-25T21:03:00.419Z,99140.58
2023-03-25T21:07:58.401Z,99140.58
2023-03-25T21:12:54.679Z,99144.37
2023-03-25T21:17:33.238Z,99148.31
2023-03-25T21:22:43.855Z,99150.84
2023-03-25T21:27:08.814Z,99139.69
2023-03-25T21:32:04.767Z,99140.98
2023-03-25T21:36:50.766Z,99142.73
2023-03-25T21:41:23.768Z,99140.42
2023-03-25T21:46:08.193Z,99132.31
2023-03-25T21:50:45.769Z,99127.34
2023-03-25T21:55:14.533Z,99129.77
2023-03-25T22:23:45.524Z,99118.48
2023-03-25T22:28:22.995Z,99116.45
2023-03-25T22:32:55.047Z,99107.64
2023-03-25T22:42:15.080Z,99101.65
2023-03-25T22:47:18.076Z,99106.38
2023-03-25T22:52:22.787Z,99103.95
2023-03-25T22:57:21.562Z,99104.34
2023-03-25T23:02:01.991Z,99109.84
2023-03-25T23:16:44.816Z,99103.20
2023-03-25T23:25:49.283Z,99097.16
2023-03-25T23:30:32.978Z,99091.00
2023-03-25T23:35:19.357Z,99080.84
2023-03-25T23:39:40.663Z,99076.98
2023-03-25T23:44:54.394Z,99072.89
